sensor_id;sensor_type;location;lat;lon;timestamp;temperature;humidity
21805;DHT22;11064;47.102;15.452;2023-07-16T05:02:07;33.00;69.50
21805;DHT22;11064;47.102;15.452;2023-07-16T05:04:34;33.90;66.20
21805;DHT22;11064;47.102;15.452;2023-07-16T05:07:02;34.00;62.90
21805;DHT22;11064;47.102;15.452;2023-07-16T05:09:29;34.40;60.80
21805;DHT22;11064;47.102;15.452;2023-07-16T05:11:55;34.50;58.50
21805;DHT22;11064;47.102;15.452;2023-07-16T05:14:21;34.90;58.10
21805;DHT22;11064;47.102;15.452;2023-07-16T05:16:47;35.10;57.10
21805;DHT22;11064;47.102;15.452;2023-07-16T05:19:12;35.10;57.50
21805;DHT22;11064;47.102;15.452;2023-07-16T05:21:38;34.90;56.50
21805;DHT22;11064;47.102;15.452;2023-07-16T05:24:04;35.70;55.00
21805;DHT22;11064;47.102;15.452;2023-07-16T05:26:30;35.40;55.30
21805;DHT22;11064;47.102;15.452;2023-07-16T05:28:56;36.10;55.10
21805;DHT22;11064;47.102;15.452;2023-07-16T05:31:22;35.40;54.50
21805;DHT22;11064;47.102;15.452;2023-07-16T05:33:48;34.70;55.00
21805;DHT22;11064;47.102;15.452;2023-07-16T05:36:14;35.50;56.40
21805;DHT22;11064;47.102;15.452;2023-07-16T05:38:40;36.10;55.40
21805;DHT22;11064;47.102;15.452;2023-07-16T05:41:06;36.60;54.10
21805;DHT22;11064;47.102;15.452;2023-07-16T05:43:32;36.50;53.80
21805;DHT22;11064;47.102;15.452;2023-07-16T05:45:58;36.20;53.40
21805;DHT22;11064;47.102;15.452;2023-07-16T05:48:24;37.20;53.20
21805;DHT22;11064;47.102;15.452;2023-07-16T05:50:50;38.30;51.10
21805;DHT22;11064;47.102;15.452;2023-07-16T05:53:16;38.90;50.60
21805;DHT22;11064;47.102;15.452;2023-07-16T05:55:42;39.50;49.10
21805;DHT22;11064;47.102;15.452;2023-07-16T05:58:09;39.80;47.70
21805;DHT22;11064;47.102;15.452;2023-07-16T06:00:38;38.90;46.70
21805;DHT22;11064;47.102;15.452;2023-07-16T06:03:05;39.60;46.40
21805;DHT22;11064;47.102;15.452;2023-07-16T06:05:31;39.10;45.90
21805;DHT22;11064;47.102;15.452;2023-07-16T06:08:00;38.80;47.30
21805;DHT22;11064;47.102;15.452;2023-07-16T06:10:26;39.10;46.90
21805;DHT22;11064;47.102;15.452;2023-07-16T06:12:52;38.60;47.80
21805;DHT22;11064;47.102;15.452;2023-07-16T06:15:18;38.10;48.60
21805;DHT22;11064;47.102;15.452;2023-07-16T06:17:43;37.20;50.60
21805;DHT22;11064;47.102;15.452;2023-07-16T06:20:10;36.70;52.40
21805;DHT22;11064;47.102;15.452;2023-07-16T06:22:36;35.40;54.90
21805;DHT22;11064;47.102;15.452;2023-07-16T06:25:02;34.50;57.30
21805;DHT22;11064;47.102;15.452;2023-07-16T06:27:30;33.10;60.40
21805;DHT22;11064;47.102;15.452;2023-07-16T06:29:56;31.90;66.00
21805;DHT22;11064;47.102;15.452;2023-07-16T06:32:21;30.20;66.90
21805;DHT22;11064;47.102;15.452;2023-07-16T06:34:47;29.10;70.20
21805;DHT22;11064;47.102;15.452;2023-07-16T06:37:13;28.20;75.70
21805;DHT22;11064;47.102;15.452;2023-07-16T06:39:39;27.90;79.50
21805;DHT22;11064;47.102;15.452;2023-07-16T06:42:05;27.60;77.50
21805;DHT22;11064;47.102;15.452;2023-07-16T06:44:31;27.50;79.80
21805;DHT22;11064;47.102;15.452;2023-07-16T06:46:57;27.40;80.70
21805;DHT22;11064;47.102;15.452;2023-07-16T06:49:23;27.50;77.70
21805;DHT22;11064;47.102;15.452;2023-07-16T06:51:49;27.60;79.00
21805;DHT22;11064;47.102;15.452;2023-07-16T06:54:15;27.50;82.50
21805;DHT22;11064;47.102;15.452;2023-07-16T06:56:41;27.60;79.00
21805;DHT22;11064;47.102;15.452;2023-07-16T06:59:07;27.70;80.60
21805;DHT22;11064;47.102;15.452;2023-07-16T07:01:33;27.70;86.10
21805;DHT22;11064;47.102;15.452;2023-07-16T07:03:58;27.60;89.90
21805;DHT22;11064;47.102;15.452;2023-07-16T07:06:24;27.50;83.70
21805;DHT22;11064;47.102;15.452;2023-07-16T07:08:50;27.20;82.80
21805;DHT22;11064;47.102;15.452;2023-07-16T07:11:16;27.30;82.80
21805;DHT22;11064;47.102;15.452;2023-07-16T07:13:42;27.20;76.00
21805;DHT22;11064;47.102;15.452;2023-07-16T07:16:08;27.40;75.80
21805;DHT22;11064;47.102;15.452;2023-07-16T07:18:34;27.50;76.40
21805;DHT22;11064;47.102;15.452;2023-07-16T07:21:00;27.70;80.40
21805;DHT22;11064;47.102;15.452;2023-07-16T07:23:26;27.50;72.60
21805;DHT22;11064;47.102;15.452;2023-07-16T07:25:52;27.60;74.80
21805;DHT22;11064;47.102;15.452;2023-07-16T07:28:19;27.70;76.20
21805;DHT22;11064;47.102;15.452;2023-07-16T07:30:45;28.00;78.70
21805;DHT22;11064;47.102;15.452;2023-07-16T07:33:11;28.20;75.40
21805;DHT22;11064;47.102;15.452;2023-07-16T07:35:37;28.10;74.00
21805;DHT22;11064;47.102;15.452;2023-07-16T07:38:04;27.80;70.30
21805;DHT22;11064;47.102;15.452;2023-07-16T07:40:29;27.80;74.10
21805;DHT22;11064;47.102;15.452;2023-07-16T07:42:55;27.80;72.80
21805;DHT22;11064;47.102;15.452;2023-07-16T07:45:21;27.80;73.50
21805;DHT22;11064;47.102;15.452;2023-07-16T07:47:47;27.80;74.50
21805;DHT22;11064;47.102;15.452;2023-07-16T07:50:14;27.80;72.80
21805;DHT22;11064;47.102;15.452;2023-07-16T07:52:40;28.10;70.80
21805;DHT22;11064;47.102;15.452;2023-07-16T07:55:06;28.10;74.00
21805;DHT22;11064;47.102;15.452;2023-07-16T07:57:32;27.90;71.20
21805;DHT22;11064;47.102;15.452;2023-07-16T07:59:58;28.20;73.60
21805;DHT22;11064;47.102;15.452;2023-07-16T08:02:24;28.20;69.70
21805;DHT22;11064;47.102;15.452;2023-07-16T08:04:55;28.20;67.20
21805;DHT22;11064;47.102;15.452;2023-07-16T08:07:21;28.20;70.80
21805;DHT22;11064;47.102;15.452;2023-07-16T08:09:47;28.20;67.60
21805;DHT22;11064;47.102;15.452;2023-07-16T08:12:13;28.40;68.90
21805;DHT22;11064;47.102;15.452;2023-07-16T08:14:39;28.60;69.00
21805;DHT22;11064;47.102;15.452;2023-07-16T08:17:05;28.70;68.50
21805;DHT22;11064;47.102;15.452;2023-07-16T08:19:31;28.60;71.40
21805;DHT22;11064;47.102;15.452;2023-07-16T08:21:57;28.70;69.30
21805;DHT22;11064;47.102;15.452;2023-07-16T08:24:25;28.50;68.30
21805;DHT22;11064;47.102;15.452;2023-07-16T08:26:51;28.50;66.90
21805;DHT22;11064;47.102;15.452;2023-07-16T08:29:17;28.30;66.40
21805;DHT22;11064;47.102;15.452;2023-07-16T08:31:43;28.50;70.00
21805;DHT22;11064;47.102;15.452;2023-07-16T08:34:09;28.40;68.50
21805;DHT22;11064;47.102;15.452;2023-07-16T08:36:36;28.30;67.70
21805;DHT22;11064;47.102;15.452;2023-07-16T08:39:03;28.30;69.60
21805;DHT22;11064;47.102;15.452;2023-07-16T08:41:29;28.40;68.70
21805;DHT22;11064;47.102;15.452;2023-07-16T08:43:56;28.60;72.20
21805;DHT22;11064;47.102;15.452;2023-07-16T08:46:23;28.60;68.40
21805;DHT22;11064;47.102;15.452;2023-07-16T08:48:49;28.80;67.90
21805;DHT22;11064;47.102;15.452;2023-07-16T08:51:16;28.90;69.60
21805;DHT22;11064;47.102;15.452;2023-07-16T08:53:42;29.00;70.30
21805;DHT22;11064;47.102;15.452;2023-07-16T08:56:09;28.90;66.90
21805;DHT22;11064;47.102;15.452;2023-07-16T08:58:35;28.80;66.80
21805;DHT22;11064;47.102;15.452;2023-07-16T09:01:03;28.70;67.10
21805;DHT22;11064;47.102;15.452;2023-07-16T09:03:31;28.70;64.40
21805;DHT22;11064;47.102;15.452;2023-07-16T09:05:56;28.90;66.20
21805;DHT22;11064;47.102;15.452;2023-07-16T09:08:22;28.90;64.90
21805;DHT22;11064;47.102;15.452;2023-07-16T09:10:57;29.30;66.80
21805;DHT22;11064;47.102;15.452;2023-07-16T09:13:26;29.80;68.90
21805;DHT22;11064;47.102;15.452;2023-07-16T09:15:57;30.10;64.40
21805;DHT22;11064;47.102;15.452;2023-07-16T09:18:27;30.30;60.10
21805;DHT22;11064;47.102;15.452;2023-07-16T09:20:59;30.50;63.50
21805;DHT22;11064;47.102;15.452;2023-07-16T09:23:30;30.70;69.40
21805;DHT22;11064;47.102;15.452;2023-07-16T09:25:56;31.00;70.00
21805;DHT22;11064;47.102;15.452;2023-07-16T09:28:23;31.10;65.20
21805;DHT22;11064;47.102;15.452;2023-07-16T09:30:49;31.20;66.10
21805;DHT22;11064;47.102;15.452;2023-07-16T09:33:18;31.40;68.90
21805;DHT22;11064;47.102;15.452;2023-07-16T09:35:44;31.60;67.10
21805;DHT22;11064;47.102;15.452;2023-07-16T09:38:12;31.50;62.20
21805;DHT22;11064;47.102;15.452;2023-07-16T09:40:40;31.30;62.70
21805;DHT22;11064;47.102;15.452;2023-07-16T09:43:13;31.10;66.10
21805;DHT22;11064;47.102;15.452;2023-07-16T09:45:41;31.30;67.70
21805;DHT22;11064;47.102;15.452;2023-07-16T09:48:07;31.40;68.70
21805;DHT22;11064;47.102;15.452;2023-07-16T09:50:34;31.50;62.90
21805;DHT22;11064;47.102;15.452;2023-07-16T09:53:00;31.30;66.00
21805;DHT22;11064;47.102;15.452;2023-07-16T09:55:31;31.10;64.30
21805;DHT22;11064;47.102;15.452;2023-07-16T09:58:00;30.80;63.30
21805;DHT22;11064;47.102;15.452;2023-07-16T10:00:27;30.90;66.90
21805;DHT22;11064;47.102;15.452;2023-07-16T10:02:54;31.00;63.10
21805;DHT22;11064;47.102;15.452;2023-07-16T10:05:28;31.50;62.90
21805;DHT22;11064;47.102;15.452;2023-07-16T10:08:00;31.60;60.90
21805;DHT22;11064;47.102;15.452;2023-07-16T10:10:44;31.60;60.90
21805;DHT22;11064;47.102;15.452;2023-07-16T10:13:13;31.80;61.40
21805;DHT22;11064;47.102;15.452;2023-07-16T10:15:50;32.30;62.60
21805;DHT22;11064;47.102;15.452;2023-07-16T10:18:36;32.20;61.00
21805;DHT22;11064;47.102;15.452;2023-07-16T10:21:09;32.30;64.50
21805;DHT22;11064;47.102;15.452;2023-07-16T10:23:43;32.60;65.10
21805;DHT22;11064;47.102;15.452;2023-07-16T10:26:12;33.10;63.80
21805;DHT22;11064;47.102;15.452;2023-07-16T10:28:38;33.40;62.70
21805;DHT22;11064;47.102;15.452;2023-07-16T10:31:05;33.30;59.00
21805;DHT22;11064;47.102;15.452;2023-07-16T10:33:33;33.20;60.40
21805;DHT22;11064;47.102;15.452;2023-07-16T10:36:02;33.10;62.50
21805;DHT22;11064;47.102;15.452;2023-07-16T10:38:28;32.60;65.20
21805;DHT22;11064;47.102;15.452;2023-07-16T10:40:56;32.70;60.70
21805;DHT22;11064;47.102;15.452;2023-07-16T10:43:22;32.80;58.90
21805;DHT22;11064;47.102;15.452;2023-07-16T10:45:50;32.30;57.70
21805;DHT22;11064;47.102;15.452;2023-07-16T10:48:16;32.60;59.90
21805;DHT22;11064;47.102;15.452;2023-07-16T10:50:42;32.90;59.90
21805;DHT22;11064;47.102;15.452;2023-07-16T10:53:08;33.50;62.00
21805;DHT22;11064;47.102;15.452;2023-07-16T10:55:34;34.00;60.90
21805;DHT22;11064;47.102;15.452;2023-07-16T10:58:04;34.30;62.30
21805;DHT22;11064;47.102;15.452;2023-07-16T11:00:37;34.60;59.50
21805;DHT22;11064;47.102;15.452;2023-07-16T11:03:05;34.60;58.10
21805;DHT22;11064;47.102;15.452;2023-07-16T11:05:31;34.60;57.70
21805;DHT22;11064;47.102;15.452;2023-07-16T11:07:57;35.00;56.80
21805;DHT22;11064;47.102;15.452;2023-07-16T11:10:24;34.70;54.30
21805;DHT22;11064;47.102;15.452;2023-07-16T11:12:51;34.10;56.40
21805;DHT22;11064;47.102;15.452;2023-07-16T11:15:29;33.40;55.00
21805;DHT22;11064;47.102;15.452;2023-07-16T11:17:55;33.80;55.80
21805;DHT22;11064;47.102;15.452;2023-07-16T11:20:21;33.90;56.20
21805;DHT22;11064;47.102;15.452;2023-07-16T11:22:48;34.30;57.20
21805;DHT22;11064;47.102;15.452;2023-07-16T11:25:13;34.60;61.20
21805;DHT22;11064;47.102;15.452;2023-07-16T11:27:41;34.80;60.10
21805;DHT22;11064;47.102;15.452;2023-07-16T11:30:08;34.30;54.50
21805;DHT22;11064;47.102;15.452;2023-07-16T11:32:41;33.60;57.70
21805;DHT22;11064;47.102;15.452;2023-07-16T11:35:08;33.60;58.40
21805;DHT22;11064;47.102;15.452;2023-07-16T11:37:35;34.00;57.80
21805;DHT22;11064;47.102;15.452;2023-07-16T11:40:04;33.90;56.40
21805;DHT22;11064;47.102;15.452;2023-07-16T11:42:32;33.90;61.00
21805;DHT22;11064;47.102;15.452;2023-07-16T11:44:58;34.40;57.00
21805;DHT22;11064;47.102;15.452;2023-07-16T11:47:26;34.60;60.40
21805;DHT22;11064;47.102;15.452;2023-07-16T11:49:52;34.80;58.90
21805;DHT22;11064;47.102;15.452;2023-07-16T11:52:20;35.40;59.80
21805;DHT22;11064;47.102;15.452;2023-07-16T11:54:47;35.70;60.10
21805;DHT22;11064;47.102;15.452;2023-07-16T11:57:13;35.90;59.20
21805;DHT22;11064;47.102;15.452;2023-07-16T11:59:39;35.90;57.30
21805;DHT22;11064;47.102;15.452;2023-07-16T12:02:05;35.40;55.20
21805;DHT22;11064;47.102;15.452;2023-07-16T12:04:30;35.40;56.20
21805;DHT22;11064;47.102;15.452;2023-07-16T12:06:56;35.50;56.70
21805;DHT22;11064;47.102;15.452;2023-07-16T12:09:22;35.50;56.90
21805;DHT22;11064;47.102;15.452;2023-07-16T12:11:48;35.60;57.60
21805;DHT22;11064;47.102;15.452;2023-07-16T12:14:14;35.70;58.30
21805;DHT22;11064;47.102;15.452;2023-07-16T12:16:39;35.70;57.10
21805;DHT22;11064;47.102;15.452;2023-07-16T12:19:08;35.90;58.20
21805;DHT22;11064;47.102;15.452;2023-07-16T12:21:35;36.00;57.40
21805;DHT22;11064;47.102;15.452;2023-07-16T12:24:01;36.20;55.40
21805;DHT22;11064;47.102;15.452;2023-07-16T12:26:27;36.40;55.20
21805;DHT22;11064;47.102;15.452;2023-07-16T12:28:54;36.70;55.60
21805;DHT22;11064;47.102;15.452;2023-07-16T12:31:20;36.70;55.70
21805;DHT22;11064;47.102;15.452;2023-07-16T12:33:47;36.70;56.90
21805;DHT22;11064;47.102;15.452;2023-07-16T12:36:14;36.50;56.10
21805;DHT22;11064;47.102;15.452;2023-07-16T12:38:40;36.20;55.80
21805;DHT22;11064;47.102;15.452;2023-07-16T12:41:07;35.60;57.80
21805;DHT22;11064;47.102;15.452;2023-07-16T12:43:33;35.00;57.70
21805;DHT22;11064;47.102;15.452;2023-07-16T12:46:01;35.20;60.30
21805;DHT22;11064;47.102;15.452;2023-07-16T12:48:29;35.60;59.00
21805;DHT22;11064;47.102;15.452;2023-07-16T12:50:55;36.00;54.50
21805;DHT22;11064;47.102;15.452;2023-07-16T12:53:22;36.30;55.60
21805;DHT22;11064;47.102;15.452;2023-07-16T12:55:48;36.00;56.40
21805;DHT22;11064;47.102;15.452;2023-07-16T12:58:15;35.60;55.50
21805;DHT22;11064;47.102;15.452;2023-07-16T13:00:41;35.30;57.30
21805;DHT22;11064;47.102;15.452;2023-07-16T13:03:07;34.90;57.50
21805;DHT22;11064;47.102;15.452;2023-07-16T13:05:38;35.00;58.90
21805;DHT22;11064;47.102;15.452;2023-07-16T13:08:05;35.00;59.50
21805;DHT22;11064;47.102;15.452;2023-07-16T13:10:31;35.50;57.90
21805;DHT22;11064;47.102;15.452;2023-07-16T13:12:56;35.60;56.30
21805;DHT22;11064;47.102;15.452;2023-07-16T13:15:23;35.70;57.30
21805;DHT22;11064;47.102;15.452;2023-07-16T13:17:49;35.70;56.80
21805;DHT22;11064;47.102;15.452;2023-07-16T13:20:15;35.60;57.40
21805;DHT22;11064;47.102;15.452;2023-07-16T13:22:41;35.30;58.40
21805;DHT22;11064;47.102;15.452;2023-07-16T13:25:07;34.70;59.40
21805;DHT22;11064;47.102;15.452;2023-07-16T13:27:36;34.40;59.00
21805;DHT22;11064;47.102;15.452;2023-07-16T13:30:02;33.90;62.90
21805;DHT22;11064;47.102;15.452;2023-07-16T13:32:29;33.90;61.70
21805;DHT22;11064;47.102;15.452;2023-07-16T13:34:55;33.50;64.00
21805;DHT22;11064;47.102;15.452;2023-07-16T13:37:21;33.10;64.20
21805;DHT22;11064;47.102;15.452;2023-07-16T13:39:47;33.00;66.00
21805;DHT22;11064;47.102;15.452;2023-07-16T13:42:13;33.30;64.30
21805;DHT22;11064;47.102;15.452;2023-07-16T13:44:40;33.70;66.00
21805;DHT22;11064;47.102;15.452;2023-07-16T13:47:06;33.90;64.70
21805;DHT22;11064;47.102;15.452;2023-07-16T13:49:32;33.70;64.90
21805;DHT22;11064;47.102;15.452;2023-07-16T13:51:58;33.40;62.40
21805;DHT22;11064;47.102;15.452;2023-07-16T13:54:24;33.10;63.00
21805;DHT22;11064;47.102;15.452;2023-07-16T13:56:51;32.80;65.40
21805;DHT22;11064;47.102;15.452;2023-07-16T13:59:17;32.70;68.80
21805;DHT22;11064;47.102;15.452;2023-07-16T14:01:43;32.80;69.60
21805;DHT22;11064;47.102;15.452;2023-07-16T14:04:10;32.90;65.40
21805;DHT22;11064;47.102;15.452;2023-07-16T14:06:36;33.10;68.90
21805;DHT22;11064;47.102;15.452;2023-07-16T14:09:02;33.40;67.50
21805;DHT22;11064;47.102;15.452;2023-07-16T14:11:31;33.50;65.10
21805;DHT22;11064;47.102;15.452;2023-07-16T14:13:57;33.50;64.60
21805;DHT22;11064;47.102;15.452;2023-07-16T14:16:23;33.30;65.00
21805;DHT22;11064;47.102;15.452;2023-07-16T14:18:51;33.10;65.80
21805;DHT22;11064;47.102;15.452;2023-07-16T14:21:18;32.90;67.50
21805;DHT22;11064;47.102;15.452;2023-07-16T14:23:44;32.70;68.40
21805;DHT22;11064;47.102;15.452;2023-07-16T14:26:10;32.50;68.80
21805;DHT22;11064;47.102;15.452;2023-07-16T14:28:36;32.20;69.70
21805;DHT22;11064;47.102;15.452;2023-07-16T14:31:02;32.10;71.80
21805;DHT22;11064;47.102;15.452;2023-07-16T14:33:28;32.00;70.40
21805;DHT22;11064;47.102;15.452;2023-07-16T14:35:55;31.90;70.20
21805;DHT22;11064;47.102;15.452;2023-07-16T14:38:21;31.80;69.80
21805;DHT22;11064;47.102;15.452;2023-07-16T14:40:47;31.40;73.90
21805;DHT22;11064;47.102;15.452;2023-07-16T14:43:15;31.40;72.60
21805;DHT22;11064;47.102;15.452;2023-07-16T14:45:41;31.70;72.30
21805;DHT22;11064;47.102;15.452;2023-07-16T14:48:06;31.90;71.80
21805;DHT22;11064;47.102;15.452;2023-07-16T14:50:33;32.30;68.20
21805;DHT22;11064;47.102;15.452;2023-07-16T14:52:59;32.70;67.50
21805;DHT22;11064;47.102;15.452;2023-07-16T14:55:25;33.10;66.10
21805;DHT22;11064;47.102;15.452;2023-07-16T14:57:51;33.40;67.50
21805;DHT22;11064;47.102;15.452;2023-07-16T15:00:17;33.40;66.60
21805;DHT22;11064;47.102;15.452;2023-07-16T15:02:44;33.50;64.70
21805;DHT22;11064;47.102;15.452;2023-07-16T15:05:10;33.30;64.40
21805;DHT22;11064;47.102;15.452;2023-07-16T15:07:37;33.10;65.40
21805;DHT22;11064;47.102;15.452;2023-07-16T15:10:04;32.70;67.20
21805;DHT22;11064;47.102;15.452;2023-07-16T15:12:31;32.40;69.50
21805;DHT22;11064;47.102;15.452;2023-07-16T15:14:57;32.30;69.40
21805;DHT22;11064;47.102;15.452;2023-07-16T15:17:24;32.00;70.20
21805;DHT22;11064;47.102;15.452;2023-07-16T15:19:51;31.70;69.80
21805;DHT22;11064;47.102;15.452;2023-07-16T15:22:17;31.50;73.10
21805;DHT22;11064;47.102;15.452;2023-07-16T15:24:47;31.50;71.80
21805;DHT22;11064;47.102;15.452;2023-07-16T15:27:13;31.90;71.20
21805;DHT22;11064;47.102;15.452;2023-07-16T15:29:39;32.40;70.00
21805;DHT22;11064;47.102;15.452;2023-07-16T15:32:06;32.70;67.10
21805;DHT22;11064;47.102;15.452;2023-07-16T15:34:33;33.30;66.50
21805;DHT22;11064;47.102;15.452;2023-07-16T15:36:59;33.30;67.90
21805;DHT22;11064;47.102;15.452;2023-07-16T15:39:26;33.60;65.30
21805;DHT22;11064;47.102;15.452;2023-07-16T15:41:52;34.40;63.60
21805;DHT22;11064;47.102;15.452;2023-07-16T15:44:18;34.80;62.60
21805;DHT22;11064;47.102;15.452;2023-07-16T15:46:45;34.70;61.70
21805;DHT22;11064;47.102;15.452;2023-07-16T15:49:11;34.60;61.60
21805;DHT22;11064;47.102;15.452;2023-07-16T15:51:38;34.30;60.60
21805;DHT22;11064;47.102;15.452;2023-07-16T15:54:07;33.90;63.80
21805;DHT22;11064;47.102;15.452;2023-07-16T15:56:33;33.50;63.70
21805;DHT22;11064;47.102;15.452;2023-07-16T15:59:00;33.20;65.20
21805;DHT22;11064;47.102;15.452;2023-07-16T16:01:26;32.80;66.10
21805;DHT22;11064;47.102;15.452;2023-07-16T16:03:52;32.60;67.40
21805;DHT22;11064;47.102;15.452;2023-07-16T16:06:19;32.40;67.40
21805;DHT22;11064;47.102;15.452;2023-07-16T16:08:45;31.90;68.60
21805;DHT22;11064;47.102;15.452;2023-07-16T16:11:11;31.40;69.40
21805;DHT22;11064;47.102;15.452;2023-07-16T16:13:38;31.00;71.60
21805;DHT22;11064;47.102;15.452;2023-07-16T16:16:05;30.80;72.10
21805;DHT22;11064;47.102;15.452;2023-07-16T16:18:31;31.00;72.30
21805;DHT22;11064;47.102;15.452;2023-07-16T16:20:57;31.30;69.80
21805;DHT22;11064;47.102;15.452;2023-07-16T16:23:24;31.40;70.40
21805;DHT22;11064;47.102;15.452;2023-07-16T16:25:50;31.20;72.40
21805;DHT22;11064;47.102;15.452;2023-07-16T16:28:16;31.00;71.80
21805;DHT22;11064;47.102;15.452;2023-07-16T16:30:42;30.70;73.60
21805;DHT22;11064;47.102;15.452;2023-07-16T16:33:08;30.60;73.90
21805;DHT22;11064;47.102;15.452;2023-07-16T16:35:41;30.70;72.40
21805;DHT22;11064;47.102;15.452;2023-07-16T16:38:09;30.80;71.80
21805;DHT22;11064;47.102;15.452;2023-07-16T16:40:36;30.90;72.90
21805;DHT22;11064;47.102;15.452;2023-07-16T16:43:04;30.90;73.20
21805;DHT22;11064;47.102;15.452;2023-07-16T16:45:30;31.00;73.90
21805;DHT22;11064;47.102;15.452;2023-07-16T16:48:02;30.70;75.10
21805;DHT22;11064;47.102;15.452;2023-07-16T16:50:29;30.50;74.60
21805;DHT22;11064;47.102;15.452;2023-07-16T16:52:56;30.20;74.50
21805;DHT22;11064;47.102;15.452;2023-07-16T16:55:28;30.00;73.90
21805;DHT22;11064;47.102;15.452;2023-07-16T16:57:54;29.90;73.60
21805;DHT22;11064;47.102;15.452;2023-07-16T17:00:21;29.90;74.30
21805;DHT22;11064;47.102;15.452;2023-07-16T17:02:47;30.00;74.40
21805;DHT22;11064;47.102;15.452;2023-07-16T17:05:13;30.00;75.50
21805;DHT22;11064;47.102;15.452;2023-07-16T17:07:39;29.90;75.70
21805;DHT22;11064;47.102;15.452;2023-07-16T17:10:07;29.50;74.00
21805;DHT22;11064;47.102;15.452;2023-07-16T17:12:33;29.20;75.20
21805;DHT22;11064;47.102;15.452;2023-07-16T17:15:01;29.10;76.40
21805;DHT22;11064;47.102;15.452;2023-07-16T17:17:27;29.10;76.90
21805;DHT22;11064;47.102;15.452;2023-07-16T17:19:54;29.00;77.90
21805;DHT22;11064;47.102;15.452;2023-07-16T17:22:23;28.90;79.20
21805;DHT22;11064;47.102;15.452;2023-07-16T17:24:49;28.80;79.40
21805;DHT22;11064;47.102;15.452;2023-07-16T17:27:15;28.50;80.00
21805;DHT22;11064;47.102;15.452;2023-07-16T17:29:45;28.20;81.40
21805;DHT22;11064;47.102;15.452;2023-07-16T17:32:12;27.90;82.30
21805;DHT22;11064;47.102;15.452;2023-07-16T17:34:39;27.60;83.10
21805;DHT22;11064;47.102;15.452;2023-07-16T17:37:07;27.30;83.70
21805;DHT22;11064;47.102;15.452;2023-07-16T17:39:35;27.00;84.10
21805;DHT22;11064;47.102;15.452;2023-07-16T17:42:01;26.80;85.50
21805;DHT22;11064;47.102;15.452;2023-07-16T17:44:28;26.60;86.40
21805;DHT22;11064;47.102;15.452;2023-07-16T17:46:56;26.40;87.60
21805;DHT22;11064;47.102;15.452;2023-07-16T17:49:22;26.30;89.20
21805;DHT22;11064;47.102;15.452;2023-07-16T17:51:48;26.10;90.10
21805;DHT22;11064;47.102;15.452;2023-07-16T17:54:14;26.00;90.30
21805;DHT22;11064;47.102;15.452;2023-07-16T17:56:40;25.90;90.70
21805;DHT22;11064;47.102;15.452;2023-07-16T17:59:06;25.80;91.00
21805;DHT22;11064;47.102;15.452;2023-07-16T18:01:32;25.70;92.00
21805;DHT22;11064;47.102;15.452;2023-07-16T18:03:58;25.60;92.30
21805;DHT22;11064;47.102;15.452;2023-07-16T18:06:24;25.50;92.70
21805;DHT22;11064;47.102;15.452;2023-07-16T18:08:52;25.40;93.00
21805;DHT22;11064;47.102;15.452;2023-07-16T18:11:19;25.40;93.30
21805;DHT22;11064;47.102;15.452;2023-07-16T18:13:44;25.30;93.60
21805;DHT22;11064;47.102;15.452;2023-07-16T18:16:10;25.30;94.00
21805;DHT22;11064;47.102;15.452;2023-07-16T18:18:37;25.30;93.50
21805;DHT22;11064;47.102;15.452;2023-07-16T18:21:03;25.40;93.50
21805;DHT22;11064;47.102;15.452;2023-07-16T18:23:29;25.40;93.20
21805;DHT22;11064;47.102;15.452;2023-07-16T18:25:55;25.40;93.60
21805;DHT22;11064;47.102;15.452;2023-07-16T18:28:21;25.30;94.00
21805;DHT22;11064;47.102;15.452;2023-07-16T18:30:47;25.30;94.50
21805;DHT22;11064;47.102;15.452;2023-07-16T18:33:14;25.20;95.20
21805;DHT22;11064;47.102;15.452;2023-07-16T18:35:40;25.20;95.10
21805;DHT22;11064;47.102;15.452;2023-07-16T18:38:08;25.20;95.30
21805;DHT22;11064;47.102;15.452;2023-07-16T18:40:34;25.10;95.70
21805;DHT22;11064;47.102;15.452;2023-07-16T18:43:00;25.00;96.90
21805;DHT22;11064;47.102;15.452;2023-07-16T18:45:26;24.90;97.60
21805;DHT22;11064;47.102;15.452;2023-07-16T18:47:52;24.80;98.10
21805;DHT22;11064;47.102;15.452;2023-07-16T18:50:19;24.70;99.60
21805;DHT22;11064;47.102;15.452;2023-07-16T18:52:45;24.80;99.00
21805;DHT22;11064;47.102;15.452;2023-07-16T18:55:12;24.70;99.30
21805;DHT22;11064;47.102;15.452;2023-07-16T18:57:39;24.70;99.80
21805;DHT22;11064;47.102;15.452;2023-07-16T19:00:08;24.60;99.90
21805;DHT22;11064;47.102;15.452;2023-07-16T19:02:36;24.50;99.90
21805;DHT22;11064;47.102;15.452;2023-07-16T19:05:03;24.50;99.90
21805;DHT22;11064;47.102;15.452;2023-07-16T19:07:30;24.60;99.90
21805;DHT22;11064;47.102;15.452;2023-07-16T19:09:56;24.60;99.90
21805;DHT22;11064;47.102;15.452;2023-07-16T19:12:23;24.60;99.90
21805;DHT22;11064;47.102;15.452;2023-07-16T19:14:53;24.50;99.90
21805;DHT22;11064;47.102;15.452;2023-07-16T19:17:29;24.40;99.90
21805;DHT22;11064;47.102;15.452;2023-07-16T19:19:56;24.30;99.90
21805;DHT22;11064;47.102;15.452;2023-07-16T19:22:23;24.20;99.90
21805;DHT22;11064;47.102;15.452;2023-07-16T19:24:50;24.10;99.90
21805;DHT22;11064;47.102;15.452;2023-07-16T19:27:16;24.10;99.90
21805;DHT22;11064;47.102;15.452;2023-07-16T19:29:42;24.00;99.90
21805;DHT22;11064;47.102;15.452;2023-07-16T19:32:08;24.00;99.90
21805;DHT22;11064;47.102;15.452;2023-07-16T19:34:35;23.90;99.90
21805;DHT22;11064;47.102;15.452;2023-07-16T19:37:01;23.90;99.90
21805;DHT22;11064;47.102;15.452;2023-07-16T19:39:32;23.80;99.90
21805;DHT22;11064;47.102;15.452;2023-07-16T19:41:58;23.80;99.90
21805;DHT22;11064;47.102;15.452;2023-07-16T19:44:25;23.80;99.90
21805;DHT22;11064;47.102;15.452;2023-07-16T19:46:52;23.80;99.90
21805;DHT22;11064;47.102;15.452;2023-07-16T19:49:18;23.60;99.90
21805;DHT22;11064;47.102;15.452;2023-07-16T19:51:44;23.70;99.90
21805;DHT22;11064;47.102;15.452;2023-07-16T19:54:10;23.60;99.90
21805;DHT22;11064;47.102;15.452;2023-07-16T19:56:38;23.60;99.90
21805;DHT22;11064;47.102;15.452;2023-07-16T19:59:05;23.60;99.90
21805;DHT22;11064;47.102;15.452;2023-07-16T20:01:31;23.60;99.90
21805;DHT22;11064;47.102;15.452;2023-07-16T20:03:57;23.60;99.90
21805;DHT22;11064;47.102;15.452;2023-07-16T20:06:24;23.60;99.90
21805;DHT22;11064;47.102;15.452;2023-07-16T20:08:50;23.60;99.90
21805;DHT22;11064;47.102;15.452;2023-07-16T20:11:17;23.60;99.90
21805;DHT22;11064;47.102;15.452;2023-07-16T20:13:43;23.50;99.90